createdAt,value
2018-10-03T00:02:04.270Z,36.67
2018-10-03T00:04:34.242Z,38.17
2018-10-03T00:07:03.610Z,39.13
2018-10-03T00:09:33.042Z,36.93
2018-10-03T00:12:02.593Z,39.60
2018-10-03T00:14:32.075Z,38.27
2018-10-03T00:17:01.607Z,34.43
2018-10-03T00:19:31.515Z,37.40
2018-10-03T00:22:00.895Z,36.63
2018-10-03T00:24:31.144Z,37.57
2018-10-03T00:27:00.748Z,36.87
2018-10-03T00:29:30.524Z,37.80
2018-10-03T00:32:00.074Z,37.67
2018-10-03T00:34:29.749Z,38.57
2018-10-03T00:36:59.330Z,35.03
2018-10-03T00:39:29.215Z,36.43
2018-10-03T00:41:59.078Z,37.23
2018-10-03T00:44:28.663Z,39.83
2018-10-03T00:46:58.734Z,38.10
2018-10-03T00:49:28.234Z,39.03
2018-10-03T00:51:57.900Z,36.27
2018-10-03T00:54:27.454Z,36.40
2018-10-03T00:56:56.926Z,36.73
2018-10-03T00:59:26.447Z,35.30
2018-10-03T01:01:56.379Z,32.57
2018-10-03T01:04:26.402Z,32.93
2018-10-03T01:06:56.175Z,33.30
2018-10-03T01:09:25.701Z,33.10
2018-10-03T01:11:56.086Z,30.63
2018-10-03T01:14:25.542Z,26.97
2018-10-03T01:16:54.811Z,28.33
2018-10-03T01:19:24.774Z,27.70
2018-10-03T01:21:54.863Z,26.30
2018-10-03T01:24:24.379Z,25.03
2018-10-03T01:26:53.884Z,24.80
2018-10-03T01:29:23.389Z,22.53
2018-10-03T01:31:52.895Z,24.20
2018-10-03T01:34:22.371Z,23.67
2018-10-03T01:36:51.904Z,21.87
2018-10-03T01:39:21.795Z,21.30
2018-10-03T01:41:51.379Z,21.50
2018-10-03T01:44:20.710Z,21.47
2018-10-03T01:46:49.979Z,20.97
2018-10-03T01:49:19.400Z,20.20
2018-10-03T01:51:49.338Z,20.87
2018-10-03T01:54:18.807Z,20.90
2018-10-03T01:56:48.515Z,20.77
2018-10-03T01:59:18.659Z,21.47
2018-10-03T02:01:48.187Z,21.50
2018-10-03T02:04:17.666Z,21.07
2018-10-03T02:06:48.302Z,23.53
2018-10-03T02:09:17.678Z,21.17
2018-10-03T02:11:47.414Z,23.27
2018-10-03T02:14:16.894Z,24.03
2018-10-03T02:16:46.902Z,25.00
2018-10-03T02:19:17.019Z,24.80
2018-10-03T02:21:46.531Z,23.50
2018-10-03T02:24:19.452Z,24.10
2018-10-03T02:26:49.363Z,24.33
2018-10-03T02:29:19.776Z,25.73
2018-10-03T02:31:49.845Z,28.17
2018-10-03T02:34:19.584Z,28.53
2018-10-03T02:36:49.150Z,28.37
2018-10-03T02:39:19.268Z,28.43
2018-10-03T02:41:48.642Z,28.80
2018-10-03T02:44:18.918Z,27.63
2018-10-03T02:46:48.261Z,26.90
2018-10-03T02:49:18.547Z,26.73
2018-10-03T02:51:48.294Z,28.07
2018-10-03T02:54:18.155Z,25.13
2018-10-03T02:56:47.701Z,23.53
2018-10-03T02:59:17.260Z,22.20
2018-10-03T03:01:46.670Z,21.77
2018-10-03T03:04:16.701Z,20.93
2018-10-03T03:06:46.151Z,19.17
2018-10-03T03:09:15.966Z,19.40
2018-10-03T03:11:46.027Z,17.83
2018-10-03T03:14:16.376Z,18.33
2018-10-03T03:16:45.646Z,17.40
2018-10-03T03:19:14.925Z,17.97
2018-10-03T03:21:44.397Z,17.17
2018-10-03T03:24:14.316Z,17.93
2018-10-03T03:26:44.184Z,18.00
2018-10-03T03:29:13.766Z,18.27
2018-10-03T03:31:43.116Z,17.40
2018-10-03T03:34:12.534Z,16.83
2018-10-03T03:36:42.099Z,17.70
2018-10-03T03:39:11.774Z,17.50
2018-10-03T03:41:42.286Z,17.93
2018-10-03T03:44:11.983Z,16.60
2018-10-03T03:46:41.986Z,16.47
2018-10-03T03:49:11.263Z,16.13
2018-10-03T03:51:40.718Z,15.47
2018-10-03T03:54:10.200Z,15.90
2018-10-03T03:56:39.795Z,16.07
2018-10-03T03:59:09.393Z,16.67
2018-10-03T04:01:38.969Z,16.73
2018-10-03T04:04:08.628Z,16.20
2018-10-03T04:06:38.699Z,16.87
2018-10-03T04:09:08.305Z,15.70
2018-10-03T04:11:37.810Z,17.43
2018-10-03T04:14:07.352Z,16.80
2018-10-03T04:16:37.243Z,17.17
2018-10-03T04:19:06.754Z,17.03
2018-10-03T04:21:40.199Z,18.63
2018-10-03T04:24:10.914Z,17.37
2018-10-03T04:26:41.523Z,18.67
2018-10-03T04:29:11.071Z,19.43
2018-10-03T04:31:40.636Z,19.10
2018-10-03T04:34:10.106Z,17.97
2018-10-03T04:36:39.800Z,18.93
2018-10-03T04:39:09.296Z,18.27
2018-10-03T04:41:38.816Z,18.07
2018-10-03T04:44:08.999Z,17.73
2018-10-03T04:46:38.879Z,18.10
2018-10-03T04:49:08.248Z,17.87
2018-10-03T04:51:38.404Z,17.97
2018-10-03T04:54:08.160Z,17.53
2018-10-03T04:56:37.759Z,19.87
2018-10-03T04:59:08.446Z,18.40
2018-10-03T05:01:38.767Z,16.97
2018-10-03T05:04:08.436Z,16.63
2018-10-03T05:06:37.954Z,16.07
2018-10-03T05:09:08.707Z,16.73
2018-10-03T05:11:37.994Z,16.37
2018-10-03T05:14:07.516Z,14.60
2018-10-03T05:16:37.436Z,14.27
2018-10-03T05:19:06.735Z,14.30
2018-10-03T05:21:37.138Z,12.97
2018-10-03T05:24:07.080Z,12.57
2018-10-03T05:26:36.463Z,13.80
2018-10-03T05:29:06.427Z,12.13
2018-10-03T05:31:36.287Z,11.23
2018-10-03T05:34:05.869Z,11.60
2018-10-03T05:36:35.292Z,11.50
2018-10-03T05:39:06.207Z,11.47
2018-10-03T05:41:35.731Z,10.13
2018-10-03T05:44:05.450Z,10.07
2018-10-03T05:46:35.147Z,9.33
2018-10-03T05:49:04.669Z,9.40
2018-10-03T05:51:34.815Z,8.27
2018-10-03T05:54:04.707Z,22.83
2018-10-03T05:56:34.810Z,12.43
2018-10-03T05:59:04.378Z,10.20
2018-10-03T06:01:34.226Z,15.60
2018-10-03T06:04:03.755Z,14.80
2018-10-03T06:06:33.795Z,17.93
2018-10-03T06:09:04.112Z,18.83
2018-10-03T06:11:33.964Z,14.87
2018-10-03T06:14:03.421Z,12.67
2018-10-03T06:16:33.784Z,8.80
2018-10-03T06:19:03.862Z,7.57
2018-10-03T06:21:34.625Z,6.10
2018-10-03T06:24:04.589Z,8.70
2018-10-03T06:26:34.202Z,6.33
2018-10-03T06:29:04.568Z,7.50
2018-10-03T06:31:34.882Z,7.10
2018-10-03T06:34:04.575Z,6.10
2018-10-03T06:36:34.479Z,6.43
2018-10-03T06:39:04.581Z,6.97
2018-10-03T06:41:33.904Z,6.30
2018-10-03T06:44:04.042Z,6.50
2018-10-03T06:46:34.209Z,6.23
2018-10-03T06:49:04.187Z,6.47
2018-10-03T06:51:33.994Z,6.27
2018-10-03T06:54:03.451Z,6.53
2018-10-03T06:56:32.994Z,7.17
2018-10-03T06:59:03.276Z,7.20
2018-10-03T07:01:33.068Z,6.47
2018-10-03T07:04:02.931Z,6.03
2018-10-03T07:06:32.636Z,6.60
2018-10-03T07:09:03.346Z,6.10
2018-10-03T07:11:33.339Z,6.20
2018-10-03T07:14:03.546Z,6.37
2018-10-03T07:16:33.164Z,6.03
2018-10-03T07:19:02.595Z,5.77
2018-10-03T07:21:32.906Z,6.07
2018-10-03T07:24:03.018Z,5.67
2018-10-03T07:26:32.597Z,6.47
2018-10-03T07:29:02.085Z,5.53
2018-10-03T07:31:31.591Z,6.83
2018-10-03T07:34:01.079Z,6.47
2018-10-03T07:36:31.221Z,7.23
2018-10-03T07:39:01.503Z,5.53
2018-10-03T07:41:31.497Z,6.83
2018-10-03T07:44:00.798Z,6.33
2018-10-03T07:46:30.259Z,6.17
2018-10-03T07:48:59.923Z,6.40
2018-10-03T07:51:29.450Z,6.37
2018-10-03T07:53:59.162Z,5.67
2018-10-03T07:56:28.895Z,5.90
2018-10-03T07:58:58.695Z,6.00
2018-10-03T08:01:28.574Z,5.03
2018-10-03T08:04:00.601Z,6.00
2018-10-03T08:06:29.995Z,5.63
2018-10-03T08:08:59.499Z,6.27
2018-10-03T08:11:28.980Z,5.83
2018-10-03T08:13:58.455Z,5.73
2018-10-03T08:16:28.140Z,6.53
2018-10-03T08:18:57.692Z,6.80
2018-10-03T08:21:27.888Z,6.27
2018-10-03T08:23:58.190Z,6.50
2018-10-03T08:26:28.230Z,7.27
2018-10-03T08:28:57.778Z,6.03
2018-10-03T08:31:27.242Z,5.70
2018-10-03T08:33:57.002Z,5.60
2018-10-03T08:36:26.467Z,5.83
2018-10-03T08:38:56.015Z,5.57
2018-10-03T08:41:25.526Z,5.23
2018-10-03T08:43:55.520Z,5.77
2018-10-03T08:46:25.131Z,5.67
2018-10-03T08:48:54.888Z,5.80
2018-10-03T08:51:24.580Z,5.27
2018-10-03T08:53:54.602Z,5.80
2018-10-03T08:56:24.236Z,5.40
2018-10-03T08:58:53.816Z,5.50
2018-10-03T09:01:24.048Z,5.73
2018-10-03T09:03:53.859Z,4.90
2018-10-03T09:06:23.423Z,5.80
2018-10-03T09:08:52.983Z,5.50
2018-10-03T09:11:22.647Z,6.40
2018-10-03T09:13:52.343Z,4.80
2018-10-03T09:16:21.673Z,6.00
2018-10-03T09:18:51.958Z,5.77
2018-10-03T09:21:21.683Z,5.23
2018-10-03T09:23:51.194Z,5.17
2018-10-03T09:26:20.917Z,5.50
2018-10-03T09:28:50.620Z,5.80
2018-10-03T09:31:20.689Z,34.53
2018-10-03T09:33:50.852Z,12.43
2018-10-03T09:36:20.543Z,14.00
2018-10-03T09:38:50.504Z,6.27
2018-10-03T09:41:20.457Z,5.57
2018-10-03T09:43:50.560Z,6.07
2018-10-03T09:46:20.228Z,12.30
2018-10-03T09:48:50.508Z,8.50
2018-10-03T09:51:20.051Z,5.83
2018-10-03T09:53:49.395Z,6.67
2018-10-03T09:56:18.611Z,5.80
2018-10-03T09:58:49.452Z,5.67
2018-10-03T10:01:24.350Z,5.23
2018-10-03T10:03:53.698Z,5.03
2018-10-03T10:06:23.409Z,5.03
2018-10-03T10:08:53.193Z,5.33
2018-10-03T10:11:22.893Z,7.73
2018-10-03T10:13:53.288Z,7.90
2018-10-03T10:16:23.039Z,9.43
2018-10-03T10:18:52.826Z,9.80
2018-10-03T10:21:22.895Z,7.77
2018-10-03T10:23:53.160Z,4.77
2018-10-03T10:26:23.340Z,5.20
2018-10-03T10:28:54.130Z,4.67
2018-10-03T10:31:23.534Z,5.00
2018-10-03T10:33:53.400Z,4.50
2018-10-03T10:36:22.807Z,4.60
2018-10-03T10:38:58.762Z,4.70
2018-10-03T10:41:29.671Z,4.47
2018-10-03T10:43:59.304Z,4.30
2018-10-03T10:46:28.808Z,4.23
2018-10-03T10:48:58.045Z,4.60
2018-10-03T10:51:27.606Z,4.90
2018-10-03T10:53:57.419Z,4.40
2018-10-03T10:56:27.047Z,4.63
2018-10-03T10:58:56.962Z,4.20
2018-10-03T11:01:26.233Z,4.20
2018-10-03T11:03:55.890Z,4.17
2018-10-03T11:06:25.684Z,4.40
2018-10-03T11:08:55.101Z,3.90
2018-10-03T11:11:24.871Z,4.07
2018-10-03T11:13:54.371Z,4.33
2018-10-03T11:16:23.654Z,4.70
2018-10-03T11:18:53.173Z,5.37
2018-10-03T11:21:22.667Z,4.60
2018-10-03T11:23:52.022Z,5.87
2018-10-03T11:26:22.135Z,5.40
2018-10-03T11:28:51.607Z,5.33
2018-10-03T11:31:21.318Z,5.70
2018-10-03T11:33:51.023Z,5.50
2018-10-03T11:36:20.899Z,4.60
2018-10-03T11:38:50.447Z,5.47
2018-10-03T11:41:19.702Z,4.70
2018-10-03T11:43:53.953Z,4.90
2018-10-03T11:46:23.472Z,4.50
2018-10-03T11:48:52.953Z,4.87
2018-10-03T11:51:22.567Z,6.30
2018-10-03T11:53:51.953Z,16.80
2018-10-03T11:56:21.593Z,5.00
2018-10-03T11:58:51.387Z,5.90
2018-10-03T12:01:21.266Z,6.13
2018-10-03T12:03:51.054Z,11.93
2018-10-03T12:06:20.441Z,4.73
2018-10-03T12:08:50.256Z,4.87
2018-10-03T12:11:19.771Z,4.00
2018-10-03T12:13:49.265Z,4.60
2018-10-03T12:16:18.606Z,4.90
2018-10-03T12:18:48.459Z,4.80
2018-10-03T12:21:17.975Z,4.90
2018-10-03T12:23:47.208Z,4.30
2018-10-03T12:26:16.569Z,5.43
2018-10-03T12:28:45.829Z,6.07
2018-10-03T12:31:15.652Z,6.07
2018-10-03T12:33:45.437Z,4.60
2018-10-03T12:36:15.223Z,5.50
2018-10-03T12:38:44.948Z,4.43
2018-10-03T12:41:14.537Z,4.47
2018-10-03T12:43:43.930Z,4.43
2018-10-03T12:46:13.219Z,4.63
2018-10-03T12:48:42.789Z,4.13
2018-10-03T12:51:12.922Z,4.47
2018-10-03T12:53:42.418Z,4.87
2018-10-03T12:56:11.817Z,4.23
2018-10-03T12:58:41.059Z,4.67
2018-10-03T13:01:11.153Z,4.83
2018-10-03T13:03:40.622Z,4.43
2018-10-03T13:06:10.069Z,4.40
2018-10-03T13:08:40.077Z,4.30
2018-10-03T13:11:09.759Z,4.73
2018-10-03T13:13:40.052Z,4.50
2018-10-03T13:16:10.504Z,4.40
2018-10-03T13:18:40.542Z,3.93
2018-10-03T13:21:10.590Z,4.90
2018-10-03T13:23:40.112Z,4.87
2018-10-03T13:26:09.599Z,5.03
2018-10-03T13:28:39.122Z,4.90
2018-10-03T13:31:08.606Z,4.50
2018-10-03T13:33:38.033Z,4.00
2018-10-03T13:36:08.265Z,4.97
2018-10-03T13:38:38.387Z,4.47
2018-10-03T13:41:08.320Z,3.83
2018-10-03T13:43:39.886Z,4.43
2018-10-03T13:46:09.131Z,4.17
2018-10-03T13:48:38.841Z,4.67
2018-10-03T13:51:08.503Z,4.57
2018-10-03T13:53:38.253Z,4.60
2018-10-03T13:56:09.334Z,4.40
2018-10-03T13:58:39.319Z,4.50
2018-10-03T14:01:09.023Z,4.40
2018-10-03T14:03:39.479Z,3.90
2018-10-03T14:06:09.250Z,4.60
2018-10-03T14:08:38.743Z,4.57
2018-10-03T14:11:08.554Z,5.03
2018-10-03T14:13:37.965Z,4.37
2018-10-03T14:16:08.047Z,4.27
2018-10-03T14:18:37.407Z,4.00
2018-10-03T14:21:06.136Z,4.67
2018-10-03T14:23:35.403Z,4.60
2018-10-03T14:26:04.667Z,4.40
2018-10-03T14:28:34.551Z,4.30
2018-10-03T14:31:03.917Z,4.20
2018-10-03T14:33:33.130Z,4.53
2018-10-03T14:36:02.410Z,4.27
2018-10-03T14:38:31.649Z,4.37
2018-10-03T14:41:00.947Z,4.23
2018-10-03T14:43:30.637Z,4.13
2018-10-03T14:46:00.570Z,4.27
2018-10-03T14:48:29.963Z,4.83
2018-10-03T14:50:59.195Z,4.53
2018-10-03T14:53:28.568Z,4.67
2018-10-03T14:55:57.881Z,5.13
2018-10-03T14:58:27.152Z,4.17
2018-10-03T15:00:56.546Z,4.50
2018-10-03T15:03:25.793Z,4.07
2018-10-03T15:05:55.019Z,4.40
2018-10-03T15:08:24.276Z,4.23
2018-10-03T15:10:53.542Z,4.00
2018-10-03T15:13:22.800Z,4.33
2018-10-03T15:15:52.009Z,4.30
2018-10-03T15:18:22.115Z,4.70
2018-10-03T15:20:51.913Z,98.23
2018-10-03T15:23:21.463Z,6.00
2018-10-03T15:25:51.153Z,37.90
2018-10-03T15:28:20.711Z,5.67
2018-10-03T15:30:50.243Z,32.00
2018-10-03T15:33:20.140Z,50.87
2018-10-03T15:35:49.603Z,6.53
2018-10-03T15:38:19.293Z,30.43
2018-10-03T15:40:48.848Z,25.60
2018-10-03T15:43:18.611Z,18.43
2018-10-03T15:45:48.451Z,7.90
2018-10-03T15:48:18.826Z,17.17
2018-10-03T15:50:48.911Z,10.87
2018-10-03T15:53:19.023Z,12.57
2018-10-03T15:55:48.703Z,8.00
2018-10-03T15:58:18.631Z,7.10
2018-10-03T16:00:48.134Z,5.63
2018-10-03T16:03:18.064Z,6.93
2018-10-03T16:05:47.550Z,5.23
2018-10-03T16:08:17.500Z,5.87
2018-10-03T16:10:47.415Z,5.90
2018-10-03T16:13:17.613Z,5.53
2018-10-03T16:15:47.407Z,5.00
2018-10-03T16:18:17.110Z,5.53
2018-10-03T16:20:46.668Z,5.93
2018-10-03T16:23:16.120Z,6.30
2018-10-03T16:25:45.610Z,6.10
2018-10-03T16:28:15.212Z,5.47
2018-10-03T16:30:45.121Z,5.03
2018-10-03T16:33:14.926Z,5.10
2018-10-03T16:35:44.488Z,6.20
2018-10-03T16:38:13.994Z,7.50
2018-10-03T16:40:44.179Z,8.50
2018-10-03T16:43:14.023Z,9.57
2018-10-03T16:45:44.205Z,7.43
2018-10-03T16:48:14.462Z,6.07
2018-10-03T16:50:43.752Z,6.90
2018-10-03T16:53:13.884Z,5.97
2018-10-03T16:55:43.627Z,6.00
2018-10-03T16:58:13.334Z,6.20
2018-10-03T17:00:43.211Z,5.23
2018-10-03T17:03:13.111Z,11.77
2018-10-03T17:05:42.355Z,17.53
2018-10-03T17:08:12.359Z,8.87
2018-10-03T17:10:42.977Z,11.10
2018-10-03T17:13:12.812Z,7.53
2018-10-03T17:15:42.794Z,10.13
2018-10-03T17:18:12.923Z,10.50
2018-10-03T17:20:42.721Z,9.20
2018-10-03T17:23:12.277Z,5.30
2018-10-03T17:25:42.155Z,6.90
2018-10-03T17:28:12.536Z,16.17
2018-10-03T17:30:42.170Z,16.03
2018-10-03T17:33:11.643Z,13.27
2018-10-03T17:35:41.415Z,9.83
2018-10-03T17:38:10.933Z,9.50
2018-10-03T17:40:40.633Z,8.47
2018-10-03T17:43:10.178Z,8.80
2018-10-03T17:45:39.945Z,6.93
2018-10-03T17:48:09.515Z,6.87
2018-10-03T17:50:39.022Z,7.60
2018-10-03T17:53:08.800Z,5.60
2018-10-03T17:55:38.330Z,5.73
2018-10-03T17:58:07.571Z,9.40
2018-10-03T18:00:37.350Z,19.53
2018-10-03T18:03:06.628Z,9.07
2018-10-03T18:05:37.099Z,6.80
2018-10-03T18:08:07.462Z,7.57
2018-10-03T18:10:37.415Z,7.83
2018-10-03T18:13:07.255Z,6.30
2018-10-03T18:15:37.320Z,6.60
2018-10-03T18:18:08.296Z,5.97
2018-10-03T18:20:38.911Z,7.13
2018-10-03T18:23:08.339Z,7.17
2018-10-03T18:25:37.929Z,7.00
2018-10-03T18:28:07.474Z,6.40
2018-10-03T18:30:37.457Z,6.57
2018-10-03T18:33:07.379Z,6.90
2018-10-03T18:35:37.936Z,7.10
2018-10-03T18:38:07.877Z,7.73
2018-10-03T18:40:37.776Z,10.30
2018-10-03T18:43:07.735Z,12.47
2018-10-03T18:45:37.886Z,10.30
2018-10-03T18:48:07.925Z,10.83
2018-10-03T18:50:38.076Z,8.10
2018-10-03T18:53:08.085Z,9.03
2018-10-03T18:55:38.260Z,6.10
2018-10-03T18:58:08.411Z,6.83
2018-10-03T19:00:39.082Z,7.33
2018-10-03T19:03:09.008Z,7.70
2018-10-03T19:05:39.134Z,7.90
2018-10-03T19:08:09.209Z,9.73
2018-10-03T19:10:39.254Z,8.80
2018-10-03T19:13:09.241Z,13.53
2018-10-03T19:15:39.066Z,16.83
2018-10-03T19:18:09.131Z,14.33
2018-10-03T19:20:39.155Z,14.63
2018-10-03T19:23:09.107Z,7.17
2018-10-03T19:25:39.221Z,7.03
2018-10-03T19:28:09.553Z,7.00
2018-10-03T19:30:39.625Z,6.57
2018-10-03T19:33:09.509Z,6.30
2018-10-03T19:35:39.412Z,6.37
2018-10-03T19:38:09.721Z,5.80
2018-10-03T19:40:39.612Z,5.77
2018-10-03T19:43:09.661Z,6.63
2018-10-03T19:45:39.784Z,6.90
2018-10-03T19:48:10.181Z,6.80
2018-10-03T19:50:40.064Z,7.00
2018-10-03T19:53:09.365Z,7.17
2018-10-03T19:55:38.860Z,7.23
2018-10-03T19:58:09.075Z,7.33
2018-10-03T20:00:38.894Z,6.90
2018-10-03T20:03:08.470Z,7.20
2018-10-03T20:05:37.920Z,7.20
2018-10-03T20:08:07.237Z,6.93
2018-10-03T20:10:37.221Z,6.63
2018-10-03T20:13:07.175Z,7.50
2018-10-03T20:15:36.750Z,7.40
2018-10-03T20:18:06.489Z,6.70
2018-10-03T20:20:36.106Z,6.50
2018-10-03T20:23:05.682Z,7.00
2018-10-03T20:25:39.665Z,7.23
2018-10-03T20:28:09.363Z,6.17
2018-10-03T20:30:38.914Z,6.47
2018-10-03T20:33:08.376Z,6.80
2018-10-03T20:35:38.186Z,6.73
2018-10-03T20:38:07.783Z,6.60
2018-10-03T20:40:38.002Z,7.20
2018-10-03T20:43:08.089Z,7.03
2018-10-03T20:45:37.795Z,6.80
2018-10-03T20:48:07.311Z,7.30
2018-10-03T20:50:36.813Z,7.53
2018-10-03T20:53:06.440Z,6.87
2018-10-03T20:55:35.831Z,6.83
2018-10-03T20:58:05.693Z,6.63
2018-10-03T21:00:35.851Z,6.77
2018-10-03T21:03:05.366Z,6.40
2018-10-03T21:05:35.002Z,6.80
2018-10-03T21:08:04.438Z,6.90
2018-10-03T21:10:33.861Z,6.70
2018-10-03T21:13:03.555Z,6.77
2018-10-03T21:15:33.059Z,6.97
2018-10-03T21:18:02.590Z,7.80
2018-10-03T21:20:32.280Z,7.20
2018-10-03T21:23:01.810Z,7.47
2018-10-03T21:25:31.719Z,7.07
2018-10-03T21:28:01.623Z,7.10
2018-10-03T21:30:31.287Z,7.20
2018-10-03T21:33:00.799Z,7.10
2018-10-03T21:35:30.331Z,6.83
2018-10-03T21:37:59.852Z,7.13
2018-10-03T21:40:29.840Z,7.17
2018-10-03T21:42:59.303Z,7.40
2018-10-03T21:45:28.763Z,6.60
2018-10-03T21:47:58.016Z,6.10
2018-10-03T21:50:27.584Z,7.30
2018-10-03T21:52:57.080Z,7.03
2018-10-03T21:55:26.775Z,6.53
2018-10-03T21:57:57.158Z,8.00
2018-10-03T22:00:32.293Z,6.33
2018-10-03T22:03:02.195Z,8.00
2018-10-03T22:05:31.793Z,7.97
2018-10-03T22:08:01.475Z,7.37
2018-10-03T22:10:31.461Z,6.67
2018-10-03T22:13:01.597Z,8.37
2018-10-03T22:15:31.613Z,8.27
2018-10-03T22:18:01.116Z,7.53
2018-10-03T22:20:30.909Z,7.20
2018-10-03T22:23:00.350Z,6.80
2018-10-03T22:25:30.058Z,6.93
2018-10-03T22:27:59.946Z,7.33
2018-10-03T22:30:30.090Z,6.90
2018-10-03T22:33:00.367Z,6.90
2018-10-03T22:35:30.555Z,7.33
2018-10-03T22:38:00.799Z,7.03
2018-10-03T22:40:30.361Z,6.90
2018-10-03T22:42:59.904Z,7.90
2018-10-03T22:45:29.146Z,7.93
2018-10-03T22:47:59.265Z,7.20
2018-10-03T22:50:28.671Z,7.57
2018-10-03T22:52:58.527Z,7.53
2018-10-03T22:55:28.274Z,7.50
2018-10-03T22:57:57.698Z,7.17
2018-10-03T23:00:27.429Z,7.47
2018-10-03T23:02:56.704Z,8.03
2018-10-03T23:05:26.239Z,8.07
2018-10-03T23:07:56.127Z,7.97
2018-10-03T23:10:25.510Z,7.60
2018-10-03T23:15:52.542Z,7.10
2018-10-03T23:18:22.467Z,7.70
2018-10-03T23:20:52.044Z,7.20
2018-10-03T23:23:21.295Z,7.03
2018-10-03T23:25:50.943Z,7.37
2018-10-03T23:28:20.627Z,7.27
2018-10-03T23:30:50.144Z,7.73
2018-10-03T23:33:19.451Z,7.73
2018-10-03T23:35:48.947Z,7.97
2018-10-03T23:38:18.725Z,7.10
2018-10-03T23:40:48.808Z,7.60
2018-10-03T23:43:18.452Z,7.67
2018-10-03T23:45:48.619Z,7.70
2018-10-03T23:48:18.114Z,7.47
2018-10-03T23:50:47.614Z,7.47
2018-10-03T23:53:17.114Z,8.07
2018-10-03T23:55:46.619Z,7.40
2018-10-03T23:58:16.147Z,7.67
